
Distance (Route):
Temperature : -56.5°C
Humidity : 24.8%
Pressure : 0hPa| Receiver | Frames | First received | Last received |
|---|---|---|---|
| LZ4TU-5 | 78 | 2026-09-04 05:39:08 | 2026-09-04 06:25:57 |
| Receiver | Date | Latitude | Longitude | Direction | Speed | Altitude | Climb | Temperature | Humidity | Pressure | Voltage | Killtimer | Uptime | BKT | XDATA |
|---|---|---|---|---|---|---|---|---|---|---|---|---|---|---|---|
| LZ4TU-5 | 2026-09-04 06:25:57 | 42.65518 | 20.08379 | 190° | 155km/h | 11719m | -14.5m/s | -56.5°C | 24.8% | 0hPa | 0V | 00:00:00 | 00:00:00 | 00:00:00 | |
| LZ4TU-5 | 2026-09-04 06:24:17 | 42.68874 | 20.08562 | 176° | 86km/h | 13247m | -15.0m/s | -55.3°C | 0.0% | 0hPa | 0V | 00:00:00 | 00:00:00 | 00:00:00 | |
| LZ4TU-5 | 2026-09-04 06:24:12 | 42.68977 | 20.08552 | 178° | 78km/h | 13320m | -14.6m/s | -54.9°C | 0.0% | 0hPa | 0V | 00:00:00 | 00:00:00 | 00:00:00 | |
| LZ4TU-5 | 2026-09-04 06:24:07 | 42.69067 | 20.08549 | 179° | 62km/h | 13394m | -15.0m/s | -54.4°C | 0.0% | 0hPa | 0V | 00:00:00 | 00:00:00 | 00:00:00 | |
| LZ4TU-5 | 2026-09-04 06:22:42 | 42.69902 | 20.08058 | 134° | 35km/h | 14722m | -15.6m/s | -58.3°C | 0.0% | 0hPa | 0V | 00:00:00 | 00:00:00 | 00:00:00 | |
| LZ4TU-5 | 2026-09-04 06:22:37 | 42.69935 | 20.08007 | 130° | 44km/h | 14797m | -15.1m/s | -58.0°C | 0.0% | 0hPa | 0V | 00:00:00 | 00:00:00 | 00:00:00 | |
| LZ4TU-5 | 2026-09-04 06:21:12 | 42.70692 | 20.07062 | 142° | 49km/h | 16133m | -15.5m/s | -58.5°C | 0.0% | 0hPa | 0V | 00:00:00 | 00:00:00 | 00:00:00 | |
| LZ4TU-5 | 2026-09-04 06:21:07 | 42.70745 | 20.07001 | 143° | 58km/h | 16220m | -19.7m/s | -57.2°C | 0.0% | 0hPa | 0V | 00:00:00 | 00:00:00 | 00:00:00 | |
| LZ4TU-5 | 2026-09-04 06:19:42 | 42.71119 | 20.06646 | 118° | 9km/h | 17606m | -15.4m/s | -58.8°C | 0.0% | 0hPa | 0V | 00:00:00 | 00:00:00 | 00:00:00 | |
| LZ4TU-5 | 2026-09-04 06:19:37 | 42.71120 | 20.06633 | 81° | 9km/h | 17683m | -19.1m/s | -59.2°C | 0.0% | 0hPa | 0V | 00:00:00 | 00:00:00 | 00:00:00 | |
| LZ4TU-5 | 2026-09-04 06:18:11 | 42.71325 | 20.06125 | 90° | 24km/h | 19151m | -19.0m/s | -57.0°C | 0.0% | 0hPa | 0V | 00:00:00 | 00:00:00 | 00:00:00 | |
| LZ4TU-5 | 2026-09-04 06:16:39 | 42.71485 | 20.05708 | 169° | 24km/h | 20724m | -15.6m/s | -54.6°C | 0.0% | 0hPa | 0V | 00:00:00 | 00:00:00 | 00:00:00 | |
| LZ4TU-5 | 2026-09-04 06:16:34 | 42.71507 | 20.05694 | 149° | 15km/h | 20804m | -16.9m/s | -54.2°C | 0.0% | 0hPa | 0V | 00:00:00 | 00:00:00 | 00:00:00 | |
| LZ4TU-5 | 2026-09-04 06:16:29 | 42.71524 | 20.05687 | 176° | 15km/h | 20891m | -19.2m/s | -54.3°C | 0.0% | 0hPa | 0V | 00:00:00 | 00:00:00 | 00:00:00 | |
| LZ4TU-5 | 2026-09-04 06:15:05 | 42.71647 | 20.05867 | 290° | 5km/h | 22445m | -13.6m/s | -54.9°C | 0.0% | 0hPa | 0V | 00:00:00 | 00:00:00 | 00:00:00 | |
| LZ4TU-5 | 2026-09-04 06:15:00 | 42.71642 | 20.05858 | 62° | 15km/h | 22499m | -12.0m/s | -54.5°C | 0.0% | 0hPa | 0V | 00:00:00 | 00:00:00 | 00:00:00 | |
| LZ4TU-5 | 2026-09-04 06:13:36 | 42.71692 | 20.06132 | 248° | 31km/h | 22004m | 5.9m/s | -55.0°C | 0.0% | 0hPa | 0V | 00:00:00 | 00:00:00 | 00:00:00 | |
| LZ4TU-5 | 2026-09-04 06:13:32 | 42.71714 | 20.06133 | 296° | 24km/h | 21986m | 4.9m/s | -55.0°C | 0.0% | 0hPa | 0V | 00:00:00 | 00:00:00 | 00:00:00 | |
| LZ4TU-5 | 2026-09-04 06:13:27 | 42.71733 | 20.06142 | 310° | 11km/h | 21962m | 1.8m/s | -54.8°C | 0.0% | 0hPa | 0V | 00:00:00 | 00:00:00 | 00:00:00 | |
| LZ4TU-5 | 2026-09-04 06:13:22 | 42.71766 | 20.06147 | 166° | 15km/h | 21929m | 10.9m/s | -54.9°C | 0.0% | 0hPa | 0V | 00:00:00 | 00:00:00 | 00:00:00 | |
| LZ4TU-5 | 2026-09-04 06:13:17 | 42.71780 | 20.06143 | 178° | 38km/h | 21897m | 4.5m/s | -54.8°C | 0.0% | 0hPa | 0V | 00:00:00 | 00:00:00 | 00:00:00 | |
| LZ4TU-5 | 2026-09-04 06:13:13 | 42.71783 | 20.06134 | 296° | 22km/h | 21877m | 2.9m/s | -54.9°C | 0.0% | 0hPa | 0V | 00:00:00 | 00:00:00 | 00:00:00 | |
| LZ4TU-5 | 2026-09-04 06:13:08 | 42.71803 | 20.06120 | 25° | 16km/h | 21845m | 6.4m/s | -54.7°C | 0.0% | 0hPa | 0V | 00:00:00 | 00:00:00 | 00:00:00 | |
| LZ4TU-5 | 2026-09-04 06:11:37 | 42.71824 | 20.06197 | 249° | 29km/h | 21283m | 5.6m/s | -55.2°C | 0.0% | 0hPa | 0V | 00:00:00 | 00:00:00 | 00:00:00 | |
| LZ4TU-5 | 2026-09-04 06:11:32 | 42.71840 | 20.06216 | 218° | 22km/h | 21256m | 8.1m/s | -55.1°C | 0.0% | 0hPa | 0V | 00:00:00 | 00:00:00 | 00:00:00 | |
| LZ4TU-5 | 2026-09-04 06:10:06 | 42.72140 | 20.06352 | 189° | 35km/h | 20723m | 2.0m/s | -54.4°C | 0.0% | 0hPa | 0V | 00:00:00 | 00:00:00 | 00:00:00 | |
| LZ4TU-5 | 2026-09-04 06:10:02 | 42.72152 | 20.06330 | 196° | 5km/h | 20695m | 5.1m/s | -54.5°C | 0.0% | 0hPa | 0V | 00:00:00 | 00:00:00 | 00:00:00 | |
| LZ4TU-5 | 2026-09-04 06:08:26 | 42.72531 | 20.05842 | 169° | 29km/h | 20144m | 3.3m/s | -55.6°C | 0.0% | 0hPa | 0V | 00:00:00 | 00:00:00 | 00:00:00 | |
| LZ4TU-5 | 2026-09-04 06:08:22 | 42.72533 | 20.05809 | 120° | 55km/h | 20125m | 7.4m/s | -55.6°C | 0.0% | 0hPa | 0V | 00:00:00 | 00:00:00 | 00:00:00 | |
| LZ4TU-5 | 2026-09-04 06:08:17 | 42.72546 | 20.05769 | 147° | 38km/h | 20096m | 5.2m/s | -55.8°C | 0.0% | 0hPa | 0V | 00:00:00 | 00:00:00 | 00:00:00 | |
| LZ4TU-5 | 2026-09-04 06:06:40 | 42.72460 | 20.05363 | 41° | 16km/h | 19520m | 7.2m/s | -55.8°C | 0.0% | 0hPa | 0V | 00:00:00 | 00:00:00 | 00:00:00 | |
| LZ4TU-5 | 2026-09-04 06:06:35 | 42.72458 | 20.05339 | 72° | 27km/h | 19494m | 8.1m/s | -55.7°C | 0.0% | 0hPa | 0V | 00:00:00 | 00:00:00 | 00:00:00 | |
| LZ4TU-5 | 2026-09-04 06:04:30 | 42.72569 | 20.04875 | 110° | 27km/h | 18739m | 6.6m/s | -55.0°C | 0.0% | 0hPa | 0V | 00:00:00 | 00:00:00 | 00:00:00 | |
| LZ4TU-5 | 2026-09-04 06:04:25 | 42.72597 | 20.04857 | 122° | 66km/h | 18704m | 3.8m/s | -55.2°C | 0.0% | 0hPa | 0V | 00:00:00 | 00:00:00 | 00:00:00 | |
| LZ4TU-5 | 2026-09-04 06:02:42 | 42.72942 | 20.04151 | 92° | 13km/h | 18110m | 6.6m/s | -57.3°C | 0.0% | 0hPa | 0V | 00:00:00 | 00:00:00 | 00:00:00 | |
| LZ4TU-5 | 2026-09-04 06:01:13 | 42.72980 | 20.03809 | 87° | 38km/h | 17563m | 2.5m/s | -57.5°C | 0.0% | 0hPa | 0V | 00:00:00 | 00:00:00 | 00:00:00 | |
| LZ4TU-5 | 2026-09-04 06:01:09 | 42.72980 | 20.03811 | 139° | 27km/h | 17545m | 6.1m/s | -57.3°C | 0.0% | 0hPa | 0V | 00:00:00 | 00:00:00 | 00:00:00 | |
| LZ4TU-5 | 2026-09-04 05:59:30 | 42.73039 | 20.03605 | 193° | 13km/h | 16925m | 6.2m/s | -55.9°C | 0.0% | 0hPa | 0V | 00:00:00 | 00:00:00 | 00:00:00 | |
| LZ4TU-5 | 2026-09-04 05:59:25 | 42.73053 | 20.03601 | 130° | 20km/h | 16897m | 3.1m/s | -55.7°C | 0.0% | 0hPa | 0V | 00:00:00 | 00:00:00 | 00:00:00 | |
| LZ4TU-5 | 2026-09-04 05:57:49 | 42.73952 | 20.03162 | 152° | 75km/h | 16334m | 5.5m/s | -56.7°C | 0.0% | 0hPa | 0V | 00:00:00 | 00:00:00 | 00:00:00 | |
| LZ4TU-5 | 2026-09-04 05:57:45 | 42.74005 | 20.03119 | 147° | 47km/h | 16310m | 6.4m/s | -56.8°C | 0.0% | 0hPa | 0V | 00:00:00 | 00:00:00 | 00:00:00 | |
| LZ4TU-5 | 2026-09-04 05:56:14 | 42.74784 | 20.02266 | 106° | 35km/h | 15819m | 5.9m/s | -57.7°C | 0.3% | 0hPa | 0V | 00:00:00 | 00:00:00 | 00:00:00 | |
| LZ4TU-5 | 2026-09-04 05:56:10 | 42.74823 | 20.02233 | 153° | 47km/h | 15796m | 5.0m/s | -57.6°C | 0.2% | 0hPa | 0V | 00:00:00 | 00:00:00 | 00:00:00 | |
| LZ4TU-5 | 2026-09-04 05:54:42 | 42.75595 | 20.01225 | 126° | 57km/h | 15298m | 11.4m/s | -57.1°C | 0.6% | 0hPa | 0V | 00:00:00 | 00:00:00 | 00:00:00 | |
| LZ4TU-5 | 2026-09-04 05:54:38 | 42.75615 | 20.01164 | 138° | 64km/h | 15264m | 8.6m/s | -57.0°C | 0.6% | 0hPa | 0V | 00:00:00 | 00:00:00 | 00:00:00 | |
| LZ4TU-5 | 2026-09-04 05:54:34 | 42.75639 | 20.01114 | 102° | 64km/h | 15237m | 1.6m/s | -57.0°C | 0.8% | 0hPa | 0V | 00:00:00 | 00:00:00 | 00:00:00 | |
| LZ4TU-5 | 2026-09-04 05:54:25 | 42.75696 | 20.00978 | 111° | 44km/h | 15171m | 4.5m/s | -56.4°C | 1.3% | 0hPa | 0V | 00:00:00 | 00:00:00 | 00:00:00 | |
| LZ4TU-5 | 2026-09-04 05:53:02 | 42.76429 | 19.99801 | 149° | 60km/h | 14669m | 5.0m/s | -57.3°C | 0.9% | 0hPa | 0V | 00:00:00 | 00:00:00 | 00:00:00 | |
| LZ4TU-5 | 2026-09-04 05:52:57 | 42.76477 | 19.99734 | 165° | 66km/h | 14638m | 3.9m/s | -57.4°C | 0% | 0hPa | 0V | 00:00:00 | 00:00:00 | 00:00:00 | |
| LZ4TU-5 | 2026-09-04 05:51:35 | 42.77219 | 19.98984 | 141° | 77km/h | 14189m | 4.6m/s | -55.2°C | 2.1% | 0hPa | 0V | 00:00:00 | 00:00:00 | 00:00:00 | |
| LZ4TU-5 | 2026-09-04 05:51:30 | 42.77281 | 19.98947 | 147° | 55km/h | 14156m | 7.1m/s | -55.0°C | 2.2% | 0hPa | 0V | 00:00:00 | 00:00:00 | 00:00:00 | |
| LZ4TU-5 | 2026-09-04 05:50:12 | 42.78372 | 19.98229 | 158° | 78km/h | 13761m | 8.8m/s | -55.2°C | 4.3% | 0hPa | 0V | 00:00:00 | 00:00:00 | 00:00:00 | |
| LZ4TU-5 | 2026-09-04 05:50:07 | 42.78453 | 19.98178 | 157° | 97km/h | 13734m | 2.8m/s | -55.3°C | 4.7% | 0hPa | 0V | 00:00:00 | 00:00:00 | 00:00:00 | |
| LZ4TU-5 | 2026-09-04 05:48:46 | 42.79775 | 19.97677 | 169° | 99km/h | 13232m | 2.5m/s | -56.1°C | 14.6% | 0hPa | 0V | 00:00:00 | 00:00:00 | 00:00:00 | |
| LZ4TU-5 | 2026-09-04 05:48:41 | 42.79874 | 19.97651 | 173° | 110km/h | 13209m | 4.9m/s | -56.2°C | 15.7% | 0hPa | 0V | 00:00:00 | 00:00:00 | 00:00:00 | |
| LZ4TU-5 | 2026-09-04 05:48:36 | 42.79971 | 19.97638 | 184° | 102km/h | 13174m | 0.6m/s | -56.2°C | 16.9% | 0hPa | 0V | 00:00:00 | 00:00:00 | 00:00:00 | |
| LZ4TU-5 | 2026-09-04 05:48:32 | 42.80068 | 19.97609 | 193° | 91km/h | 13152m | 7.5m/s | -56.3°C | 18.1% | 0hPa | 0V | 00:00:00 | 00:00:00 | 00:00:00 | |
| LZ4TU-5 | 2026-09-04 05:48:27 | 42.80182 | 19.97617 | 190° | 89km/h | 13120m | 3.1m/s | -56.2°C | 19.6% | 0hPa | 0V | 00:00:00 | 00:00:00 | 00:00:00 | |
| LZ4TU-5 | 2026-09-04 05:47:10 | 42.82479 | 19.97542 | 180° | 141km/h | 12642m | 4.1m/s | -59.3°C | 37.6% | 0hPa | 0V | 00:00:00 | 00:00:00 | 00:00:00 | |
| LZ4TU-5 | 2026-09-04 05:47:06 | 42.82641 | 19.97566 | 185° | 144km/h | 12621m | 6.9m/s | -59.7°C | 38.4% | 0hPa | 0V | 00:00:00 | 00:00:00 | 00:00:00 | |
| LZ4TU-5 | 2026-09-04 05:47:00 | 42.82865 | 19.97587 | 189° | 131km/h | 12574m | 4.4m/s | -60.3°C | 39.6% | 0hPa | 0V | 00:00:00 | 00:00:00 | 00:00:00 | |
| LZ4TU-5 | 2026-09-04 05:46:56 | 42.83015 | 19.97583 | 184° | 144km/h | 12559m | 5.1m/s | -60.9°C | 40.6% | 0hPa | 0V | 00:00:00 | 00:00:00 | 00:00:00 | |
| LZ4TU-5 | 2026-09-04 05:45:35 | 42.85883 | 19.97393 | 180° | 130km/h | 12137m | 5.2m/s | -59.8°C | 45.0% | 0hPa | 0V | 00:00:00 | 00:00:00 | 00:00:00 | |
| LZ4TU-5 | 2026-09-04 05:45:30 | 42.86055 | 19.97411 | 187° | 146km/h | 12108m | 5.6m/s | -59.7°C | 44.8% | 0hPa | 0V | 00:00:00 | 00:00:00 | 00:00:00 | |
| LZ4TU-5 | 2026-09-04 05:44:11 | 42.88944 | 19.98023 | 182° | 157km/h | 11566m | 5.9m/s | -55.5°C | 40.0% | 0hPa | 0V | 00:00:00 | 00:00:00 | 00:00:00 | |
| LZ4TU-5 | 2026-09-04 05:44:06 | 42.89130 | 19.98060 | 198° | 139km/h | 11539m | 7.7m/s | -55.2°C | 40.8% | 0hPa | 0V | 00:00:00 | 00:00:00 | 00:00:00 | |
| LZ4TU-5 | 2026-09-04 05:42:37 | 42.92436 | 19.98833 | 192° | 164km/h | 10968m | 5.7m/s | -50.7°C | 44.3% | 0hPa | 0V | 00:00:00 | 00:00:00 | 00:00:00 | |
| LZ4TU-5 | 2026-09-04 05:42:33 | 42.92582 | 19.98858 | 179° | 142km/h | 10940m | 3.7m/s | -50.5°C | 43.8% | 0hPa | 0V | 00:00:00 | 00:00:00 | 00:00:00 | |
| LZ4TU-5 | 2026-09-04 05:42:27 | 42.92804 | 19.98894 | 188° | 157km/h | 10892m | 6.3m/s | -50.1°C | 43.5% | 0hPa | 0V | 00:00:00 | 00:00:00 | 00:00:00 | |
| LZ4TU-5 | 2026-09-04 05:41:05 | 42.95847 | 19.99313 | 193° | 135km/h | 10372m | 3.2m/s | -45.2°C | 39.9% | 0hPa | 0V | 00:00:00 | 00:00:00 | 00:00:00 | |
| LZ4TU-5 | 2026-09-04 05:41:01 | 42.95997 | 19.99330 | 181° | 150km/h | 10352m | 5.8m/s | -45.0°C | 40.2% | 0hPa | 0V | 00:00:00 | 00:00:00 | 00:00:00 | |
| LZ4TU-5 | 2026-09-04 05:40:56 | 42.96187 | 19.99371 | 184° | 155km/h | 10323m | 6.8m/s | -44.8°C | 40.6% | 0hPa | 0V | 00:00:00 | 00:00:00 | 00:00:00 | |
| LZ4TU-5 | 2026-09-04 05:40:50 | 42.96402 | 19.99384 | 177° | 131km/h | 10289m | 5.5m/s | -44.5°C | 40.9% | 0hPa | 0V | 00:00:00 | 00:00:00 | 00:00:00 | |
| LZ4TU-5 | 2026-09-04 05:40:43 | 42.96659 | 19.99407 | 192° | 146km/h | 10242m | 3.2m/s | -44.0°C | 41.5% | 0hPa | 0V | 00:00:00 | 00:00:00 | 00:00:00 | |
| LZ4TU-5 | 2026-09-04 05:40:38 | 42.96842 | 19.99433 | 192° | 131km/h | 10215m | 2.4m/s | -43.8°C | 42.2% | 0hPa | 0V | 00:00:00 | 00:00:00 | 00:00:00 | |
| LZ4TU-5 | 2026-09-04 05:40:33 | 42.97027 | 19.99451 | 180° | 137km/h | 10186m | 5.7m/s | -43.6°C | 42.7% | 0hPa | 0V | 00:00:00 | 00:00:00 | 00:00:00 | |
| LZ4TU-5 | 2026-09-04 05:39:13 | 42.99898 | 19.99692 | 178° | 141km/h | 9692m | 4.6m/s | -39.2°C | 39.6% | 0hPa | 0V | 00:00:00 | 00:00:00 | 00:00:00 | |
| LZ4TU-5 | 2026-09-04 05:39:08 | 43.00083 | 19.99697 | 181° | 157km/h | 9673m | 4.9m/s | -39.0°C | 39.4% | 0hPa | 0V | 00:00:00 | 00:00:00 | 00:00:00 |